sensor_id;sensor_type;location;lat;lon;timestamp;pressure;altitude;pressure_sealevel;temperature;humidity
39773;BME280;25451;51.960;6.250;2022-12-20T00:01:47;101246.34;;;9.35;79.21
39773;BME280;25451;51.960;6.250;2022-12-20T00:04:12;101236.19;;;9.36;79.55
39773;BME280;25451;51.960;6.250;2022-12-20T00:06:38;101239.78;;;9.36;79.11
39773;BME280;25451;51.960;6.250;2022-12-20T00:09:06;101224.94;;;9.37;79.20
39773;BME280;25451;51.960;6.250;2022-12-20T00:11:32;101238.22;;;9.47;79.31
39773;BME280;25451;51.960;6.250;2022-12-20T00:13:57;101225.94;;;9.43;79.21
39773;BME280;25451;51.960;6.250;2022-12-20T00:16:26;101223.13;;;9.49;79.20
39773;BME280;25451;51.960;6.250;2022-12-20T00:18:54;101223.13;;;9.49;79.41
39773;BME280;25451;51.960;6.250;2022-12-20T00:21:20;101222.69;;;9.52;79.33
39773;BME280;25451;51.960;6.250;2022-12-20T00:23:46;101205.34;;;9.45;79.51
39773;BME280;25451;51.960;6.250;2022-12-20T00:26:14;101204.28;;;9.46;79.53
39773;BME280;25451;51.960;6.250;2022-12-20T00:28:40;101210.81;;;9.52;79.50
39773;BME280;25451;51.960;6.250;2022-12-20T00:31:07;101208.03;;;9.52;79.45
39773;BME280;25451;51.960;6.250;2022-12-20T00:33:34;101211.19;;;9.55;79.37
39773;BME280;25451;51.960;6.250;2022-12-20T00:36:00;101189.38;;;9.54;79.40
39773;BME280;25451;51.960;6.250;2022-12-20T00:38:26;101215.88;;;9.55;79.30
39773;BME280;25451;51.960;6.250;2022-12-20T00:41:20;101220.22;;;9.62;79.58
39773;BME280;25451;51.960;6.250;2022-12-20T00:43:46;101205.22;;;9.58;79.29
39773;BME280;25451;51.960;6.250;2022-12-20T00:46:13;101188.53;;;9.53;79.41
39773;BME280;25451;51.960;6.250;2022-12-20T00:48:39;101200.09;;;9.62;79.58
39773;BME280;25451;51.960;6.250;2022-12-20T00:51:10;101190.75;;;9.63;79.23
39773;BME280;25451;51.960;6.250;2022-12-20T00:53:36;101193.91;;;9.66;79.38
39773;BME280;25451;51.960;6.250;2022-12-20T00:56:02;101199.78;;;9.70;79.24
39773;BME280;25451;51.960;6.250;2022-12-20T00:58:28;101189.00;;;9.68;79.44
39773;BME280;25451;51.960;6.250;2022-12-20T01:00:54;101193.41;;;9.69;79.17
39773;BME280;25451;51.960;6.250;2022-12-20T01:03:20;101204.13;;;9.77;79.40
39773;BME280;25451;51.960;6.250;2022-12-20T01:05:53;101202.47;;;9.76;79.34
39773;BME280;25451;51.960;6.250;2022-12-20T01:08:20;101197.09;;;9.81;79.18
39773;BME280;25451;51.960;6.250;2022-12-20T01:10:46;101188.81;;;9.81;79.06
39773;BME280;25451;51.960;6.250;2022-12-20T01:13:12;101189.44;;;9.83;79.27
39773;BME280;25451;51.960;6.250;2022-12-20T01:15:37;101196.19;;;9.87;79.39
39773;BME280;25451;51.960;6.250;2022-12-20T01:18:03;101180.72;;;9.86;79.18
39773;BME280;25451;51.960;6.250;2022-12-20T01:20:28;101181.31;;;9.88;79.20
39773;BME280;25451;51.960;6.250;2022-12-20T01:22:53;101195.28;;;9.93;79.43
39773;BME280;25451;51.960;6.250;2022-12-20T01:25:19;101172.59;;;9.91;78.95
39773;BME280;25451;51.960;6.250;2022-12-20T01:27:44;101178.00;;;9.98;79.07
39773;BME280;25451;51.960;6.250;2022-12-20T01:30:10;101179.09;;;9.97;79.32
39773;BME280;25451;51.960;6.250;2022-12-20T01:32:36;101182.84;;;10.02;79.18
39773;BME280;25451;51.960;6.250;2022-12-20T01:35:01;101192.81;;;10.03;79.23
39773;BME280;25451;51.960;6.250;2022-12-20T01:37:27;101183.44;;;10.04;79.10
39773;BME280;25451;51.960;6.250;2022-12-20T01:39:52;101180.22;;;10.08;79.03
39773;BME280;25451;51.960;6.250;2022-12-20T01:42:17;101189.50;;;10.13;79.06
39773;BME280;25451;51.960;6.250;2022-12-20T01:47:09;101184.13;;;10.18;79.12
39773;BME280;25451;51.960;6.250;2022-12-20T01:49:45;101184.38;;;10.17;78.79
39773;BME280;25451;51.960;6.250;2022-12-20T01:52:15;101200.22;;;10.21;78.88
39773;BME280;25451;51.960;6.250;2022-12-20T01:54:50;101209.97;;;10.24;78.70
39773;BME280;25451;51.960;6.250;2022-12-20T01:57:20;101200.75;;;10.30;78.71
39773;BME280;25451;51.960;6.250;2022-12-20T01:59:47;101196.06;;;10.30;78.67
39773;BME280;25451;51.960;6.250;2022-12-20T02:02:14;101192.06;;;10.26;78.75
39773;BME280;25451;51.960;6.250;2022-12-20T02:04:40;101203.25;;;10.31;78.79
39773;BME280;25451;51.960;6.250;2022-12-20T02:07:07;101199.19;;;10.34;78.57
39773;BME280;25451;51.960;6.250;2022-12-20T02:09:34;101199.31;;;10.39;78.81
39773;BME280;25451;51.960;6.250;2022-12-20T02:12:11;101192.13;;;10.38;78.63
39773;BME280;25451;51.960;6.250;2022-12-20T02:14:44;101191.44;;;10.42;78.82
39773;BME280;25451;51.960;6.250;2022-12-20T02:20:14;101191.19;;;10.44;78.62
39773;BME280;25451;51.960;6.250;2022-12-20T02:31:32;101194.81;;;10.44;79.07
39773;BME280;25451;51.960;6.250;2022-12-20T02:33:59;101187.34;;;10.45;78.92
39773;BME280;25451;51.960;6.250;2022-12-20T02:36:26;101185.69;;;10.44;78.98
39773;BME280;25451;51.960;6.250;2022-12-20T02:38:51;101168.97;;;10.39;79.12
39773;BME280;25451;51.960;6.250;2022-12-20T02:41:26;101175.00;;;10.47;79.08
39773;BME280;25451;51.960;6.250;2022-12-20T02:44:04;101146.09;;;10.38;79.18
39773;BME280;25451;51.960;6.250;2022-12-20T02:46:54;101138.63;;;10.39;79.19
39773;BME280;25451;51.960;6.250;2022-12-20T02:49:24;101125.91;;;10.38;79.21
39773;BME280;25451;51.960;6.250;2022-12-20T02:51:52;101134.31;;;10.43;78.96
39773;BME280;25451;51.960;6.250;2022-12-20T02:54:19;101155.94;;;10.46;79.46
39773;BME280;25451;51.960;6.250;2022-12-20T02:56:55;101153.16;;;10.46;79.33
39773;BME280;25451;51.960;6.250;2022-12-20T02:59:25;101138.00;;;10.37;79.46
39773;BME280;25451;51.960;6.250;2022-12-20T03:01:54;101144.41;;;10.49;79.59
39773;BME280;25451;51.960;6.250;2022-12-20T03:04:30;101151.63;;;10.50;79.57
39773;BME280;25451;51.960;6.250;2022-12-20T03:09:27;101128.78;;;10.43;79.62
39773;BME280;25451;51.960;6.250;2022-12-20T03:11:54;101127.03;;;10.48;79.56
39773;BME280;25451;51.960;6.250;2022-12-20T03:14:20;101124.47;;;10.47;79.72
39773;BME280;25451;51.960;6.250;2022-12-20T03:16:45;101111.53;;;10.47;79.79
39773;BME280;25451;51.960;6.250;2022-12-20T03:19:10;101116.69;;;10.44;79.74
39773;BME280;25451;51.960;6.250;2022-12-20T03:21:36;101127.72;;;10.44;80.09
39773;BME280;25451;51.960;6.250;2022-12-20T03:24:01;101134.91;;;10.45;80.07
39773;BME280;25451;51.960;6.250;2022-12-20T03:26:26;101138.78;;;10.44;79.94
39773;BME280;25451;51.960;6.250;2022-12-20T03:28:51;101134.31;;;10.43;80.07
39773;BME280;25451;51.960;6.250;2022-12-20T03:31:17;101132.16;;;10.45;79.91
39773;BME280;25451;51.960;6.250;2022-12-20T03:33:42;101125.56;;;10.46;80.09
39773;BME280;25451;51.960;6.250;2022-12-20T03:36:07;101118.50;;;10.50;80.30
39773;BME280;25451;51.960;6.250;2022-12-20T03:38:33;101126.19;;;10.48;80.24
39773;BME280;25451;51.960;6.250;2022-12-20T03:40:58;101125.56;;;10.46;80.23
39773;BME280;25451;51.960;6.250;2022-12-20T03:43:23;101125.69;;;10.51;80.17
39773;BME280;25451;51.960;6.250;2022-12-20T03:45:49;101102.91;;;10.44;80.28
39773;BME280;25451;51.960;6.250;2022-12-20T03:48:14;101119.09;;;10.52;80.19
39773;BME280;25451;51.960;6.250;2022-12-20T03:50:39;101114.28;;;10.47;80.28
39773;BME280;25451;51.960;6.250;2022-12-20T03:53:05;101124.03;;;10.50;80.37
39773;BME280;25451;51.960;6.250;2022-12-20T03:55:30;101119.72;;;10.54;80.30
39773;BME280;25451;51.960;6.250;2022-12-20T03:57:55;101120.16;;;10.51;80.34
39773;BME280;25451;51.960;6.250;2022-12-20T04:00:21;101113.59;;;10.52;80.19
39773;BME280;25451;51.960;6.250;2022-12-20T04:02:46;101102.41;;;10.47;80.08
39773;BME280;25451;51.960;6.250;2022-12-20T04:05:11;101102.31;;;10.53;80.36
39773;BME280;25451;51.960;6.250;2022-12-20T04:07:37;101103.41;;;10.52;80.41
39773;BME280;25451;51.960;6.250;2022-12-20T04:10:02;101108.41;;;10.55;80.36
39773;BME280;25451;51.960;6.250;2022-12-20T04:12:28;101098.59;;;10.48;80.17
39773;BME280;25451;51.960;6.250;2022-12-20T04:14:53;101099.28;;;10.55;80.14
39773;BME280;25451;51.960;6.250;2022-12-20T04:17:19;101099.69;;;10.58;80.41
39773;BME280;25451;51.960;6.250;2022-12-20T04:19:44;101102.44;;;10.58;80.14
39773;BME280;25451;51.960;6.250;2022-12-20T04:22:09;101087.66;;;10.53;80.37
39773;BME280;25451;51.960;6.250;2022-12-20T04:24:35;101097.28;;;10.62;80.37
39773;BME280;25451;51.960;6.250;2022-12-20T04:27:00;101095.38;;;10.62;80.35
39773;BME280;25451;51.960;6.250;2022-12-20T04:29:25;101087.78;;;10.58;80.28
39773;BME280;25451;51.960;6.250;2022-12-20T04:31:51;101101.50;;;10.64;80.20
39773;BME280;25451;51.960;6.250;2022-12-20T04:34:16;101089.47;;;10.59;80.29
39773;BME280;25451;51.960;6.250;2022-12-20T04:36:42;101088.84;;;10.57;80.31
39773;BME280;25451;51.960;6.250;2022-12-20T04:39:07;101099.53;;;10.65;80.29
39773;BME280;25451;51.960;6.250;2022-12-20T04:41:33;101088.16;;;10.61;80.14
39773;BME280;25451;51.960;6.250;2022-12-20T04:43:58;101082.03;;;10.59;80.57
39773;BME280;25451;51.960;6.250;2022-12-20T04:46:25;101084.69;;;10.66;80.59
39773;BME280;25451;51.960;6.250;2022-12-20T04:48:50;101088.03;;;10.68;80.39
39773;BME280;25451;51.960;6.250;2022-12-20T04:51:16;101086.94;;;10.69;80.17
39773;BME280;25451;51.960;6.250;2022-12-20T04:53:42;101085.53;;;10.66;80.25
39773;BME280;25451;51.960;6.250;2022-12-20T04:56:19;101078.19;;;10.72;80.49
39773;BME280;25451;51.960;6.250;2022-12-20T04:58:47;101086.22;;;10.73;80.35
39773;BME280;25451;51.960;6.250;2022-12-20T05:01:12;101084.19;;;10.69;80.32
39773;BME280;25451;51.960;6.250;2022-12-20T05:03:39;101093.66;;;10.73;80.17
39773;BME280;25451;51.960;6.250;2022-12-20T05:06:05;101093.91;;;10.71;80.27
39773;BME280;25451;51.960;6.250;2022-12-20T05:08:30;101097.06;;;10.75;80.07
39773;BME280;25451;51.960;6.250;2022-12-20T05:10:56;101089.59;;;10.75;79.81
39773;BME280;25451;51.960;6.250;2022-12-20T05:13:21;101089.38;;;10.77;80.18
39773;BME280;25451;51.960;6.250;2022-12-20T05:15:52;101093.81;;;10.78;80.00
39773;BME280;25451;51.960;6.250;2022-12-20T05:18:17;101091.19;;;10.83;80.28
39773;BME280;25451;51.960;6.250;2022-12-20T05:20:43;101088.19;;;10.84;80.19
39773;BME280;25451;51.960;6.250;2022-12-20T05:23:09;101081.19;;;10.82;80.15
39773;BME280;25451;51.960;6.250;2022-12-20T05:25:53;101087.31;;;10.84;80.24
39773;BME280;25451;51.960;6.250;2022-12-20T05:28:48;101091.28;;;10.88;80.21
39773;BME280;25451;51.960;6.250;2022-12-20T05:31:13;101094.03;;;10.88;80.09
39773;BME280;25451;51.960;6.250;2022-12-20T05:33:39;101099.09;;;10.91;80.03
39773;BME280;25451;51.960;6.250;2022-12-20T05:36:04;101081.34;;;10.87;80.05
39773;BME280;25451;51.960;6.250;2022-12-20T05:38:30;101076.88;;;10.86;80.07
39773;BME280;25451;51.960;6.250;2022-12-20T05:40:55;101090.56;;;10.93;80.06
39773;BME280;25451;51.960;6.250;2022-12-20T05:43:20;101071.97;;;10.88;80.12
39773;BME280;25451;51.960;6.250;2022-12-20T05:45:47;101072.69;;;10.95;80.29
39773;BME280;25451;51.960;6.250;2022-12-20T05:48:14;101081.56;;;10.97;80.09
39773;BME280;25451;51.960;6.250;2022-12-20T05:50:40;101065.47;;;10.94;80.18
39773;BME280;25451;51.960;6.250;2022-12-20T05:53:05;101057.91;;;10.90;79.99
39773;BME280;25451;51.960;6.250;2022-12-20T05:55:30;101054.31;;;10.89;80.08
39773;BME280;25451;51.960;6.250;2022-12-20T05:57:56;101046.13;;;10.94;80.05
39773;BME280;25451;51.960;6.250;2022-12-20T06:00:21;101050.59;;;10.95;80.22
39773;BME280;25451;51.960;6.250;2022-12-20T06:02:46;101045.41;;;10.99;80.23
39773;BME280;25451;51.960;6.250;2022-12-20T06:05:12;101050.09;;;10.98;80.36
39773;BME280;25451;51.960;6.250;2022-12-20T06:07:37;101046.13;;;10.94;79.91
39773;BME280;25451;51.960;6.250;2022-12-20T06:10:02;101048.19;;;10.99;80.04
39773;BME280;25451;51.960;6.250;2022-12-20T06:12:28;101034.63;;;10.97;80.55
39773;BME280;25451;51.960;6.250;2022-12-20T06:14:53;101034.84;;;10.96;80.28
39773;BME280;25451;51.960;6.250;2022-12-20T06:17:19;101036.53;;;10.97;80.35
39773;BME280;25451;51.960;6.250;2022-12-20T06:19:46;101048.53;;;11.02;80.01
39773;BME280;25451;51.960;6.250;2022-12-20T06:22:11;101048.53;;;11.02;80.33
39773;BME280;25451;51.960;6.250;2022-12-20T06:24:37;101045.75;;;11.02;80.22
39773;BME280;25451;51.960;6.250;2022-12-20T06:27:03;101040.75;;;10.99;80.14
39773;BME280;25451;51.960;6.250;2022-12-20T06:29:31;101043.59;;;11.04;80.28
39773;BME280;25451;51.960;6.250;2022-12-20T06:31:56;101028.84;;;10.99;80.16
39773;BME280;25451;51.960;6.250;2022-12-20T06:34:22;101045.28;;;11.05;80.17
39773;BME280;25451;51.960;6.250;2022-12-20T06:36:47;101036.41;;;11.03;80.31
39773;BME280;25451;51.960;6.250;2022-12-20T06:39:13;101029.19;;;11.02;80.36
39773;BME280;25451;51.960;6.250;2022-12-20T06:41:39;101014.19;;;10.98;80.44
39773;BME280;25451;51.960;6.250;2022-12-20T06:44:05;101004.25;;;10.97;80.28
39773;BME280;25451;51.960;6.250;2022-12-20T06:46:30;101013.22;;;11.04;80.33
39773;BME280;25451;51.960;6.250;2022-12-20T06:48:56;101000.25;;;11.05;80.13
39773;BME280;25451;51.960;6.250;2022-12-20T06:51:21;100997.75;;;11.03;80.35
39773;BME280;25451;51.960;6.250;2022-12-20T06:53:47;100984.91;;;10.97;80.21
39773;BME280;25451;51.960;6.250;2022-12-20T06:56:12;101009.59;;;11.04;80.23
39773;BME280;25451;51.960;6.250;2022-12-20T06:58:37;101012.16;;;11.05;80.15
39773;BME280;25451;51.960;6.250;2022-12-20T07:01:03;101009.97;;;11.07;80.11
39773;BME280;25451;51.960;6.250;2022-12-20T07:03:28;100998.34;;;11.05;80.48
39773;BME280;25451;51.960;6.250;2022-12-20T07:05:54;101001.44;;;11.09;80.30
39773;BME280;25451;51.960;6.250;2022-12-20T07:08:20;100990.53;;;11.02;79.95
39773;BME280;25451;51.960;6.250;2022-12-20T07:10:46;101009.13;;;11.07;79.99
39773;BME280;25451;51.960;6.250;2022-12-20T07:13:12;101010.97;;;11.01;80.07
39773;BME280;25451;51.960;6.250;2022-12-20T07:15:37;101003.16;;;10.98;80.04
39773;BME280;25451;51.960;6.250;2022-12-20T07:18:03;100988.25;;;10.99;80.19
39773;BME280;25451;51.960;6.250;2022-12-20T07:20:29;101010.59;;;10.98;80.19
39773;BME280;25451;51.960;6.250;2022-12-20T07:22:54;101009.16;;;10.95;80.14
39773;BME280;25451;51.960;6.250;2022-12-20T07:25:20;100999.19;;;10.94;80.17
39773;BME280;25451;51.960;6.250;2022-12-20T07:27:46;100997.66;;;10.87;80.06
39773;BME280;25451;51.960;6.250;2022-12-20T07:30:14;100999.81;;;10.84;80.10
39773;BME280;25451;51.960;6.250;2022-12-20T07:32:39;101009.53;;;10.87;80.39
39773;BME280;25451;51.960;6.250;2022-12-20T07:35:05;101006.91;;;10.80;80.28
39773;BME280;25451;51.960;6.250;2022-12-20T07:37:30;100994.16;;;10.79;80.43
39773;BME280;25451;51.960;6.250;2022-12-20T07:39:56;101003.28;;;10.80;80.18
39773;BME280;25451;51.960;6.250;2022-12-20T07:42:21;101002.56;;;10.73;80.29
39773;BME280;25451;51.960;6.250;2022-12-20T07:44:47;100997.16;;;10.78;80.34
39773;BME280;25451;51.960;6.250;2022-12-20T07:47:12;101003.19;;;10.75;80.24
39773;BME280;25451;51.960;6.250;2022-12-20T07:49:37;100987.22;;;10.65;80.43
39773;BME280;25451;51.960;6.250;2022-12-20T07:52:03;100991.53;;;10.73;80.38
39773;BME280;25451;51.960;6.250;2022-12-20T07:54:32;101000.56;;;10.68;80.27
39773;BME280;25451;51.960;6.250;2022-12-20T07:57:05;100998.00;;;10.67;80.53
39773;BME280;25451;51.960;6.250;2022-12-20T07:59:38;100989.13;;;10.65;80.23
39773;BME280;25451;51.960;6.250;2022-12-20T08:02:07;100994.31;;;10.61;80.35
39773;BME280;25451;51.960;6.250;2022-12-20T08:04:36;100996.22;;;10.61;80.21
39773;BME280;25451;51.960;6.250;2022-12-20T08:07:02;101005.09;;;10.63;80.37
39773;BME280;25451;51.960;6.250;2022-12-20T08:09:30;101013.97;;;10.65;80.37
39773;BME280;25451;51.960;6.250;2022-12-20T08:11:59;101008.94;;;10.62;80.10
39773;BME280;25451;51.960;6.250;2022-12-20T08:14:25;101001.97;;;10.59;80.14
39773;BME280;25451;51.960;6.250;2022-12-20T08:16:51;101000.78;;;10.55;80.06
39773;BME280;25451;51.960;6.250;2022-12-20T08:19:17;101001.13;;;10.59;80.39
39773;BME280;25451;51.960;6.250;2022-12-20T08:21:43;100999.47;;;10.58;80.35
39773;BME280;25451;51.960;6.250;2022-12-20T08:24:08;101005.00;;;10.58;80.34
39773;BME280;25451;51.960;6.250;2022-12-20T08:26:38;101012.19;;;10.59;80.26
39773;BME280;25451;51.960;6.250;2022-12-20T08:29:04;101023.81;;;10.61;80.17
39773;BME280;25451;51.960;6.250;2022-12-20T08:31:29;101015.19;;;10.57;80.17
39773;BME280;25451;51.960;6.250;2022-12-20T08:33:55;101014.47;;;10.62;80.20
39773;BME280;25451;51.960;6.250;2022-12-20T08:36:20;101001.63;;;10.56;79.94
39773;BME280;25451;51.960;6.250;2022-12-20T08:38:45;101009.19;;;10.60;80.07
39773;BME280;25451;51.960;6.250;2022-12-20T08:41:12;101008.22;;;10.55;80.03
39773;BME280;25451;51.960;6.250;2022-12-20T08:43:39;101014.72;;;10.60;79.99
39773;BME280;25451;51.960;6.250;2022-12-20T08:46:06;101013.88;;;10.60;79.95
39773;BME280;25451;51.960;6.250;2022-12-20T08:48:32;101021.06;;;10.61;79.94
39773;BME280;25451;51.960;6.250;2022-12-20T08:51:04;101007.63;;;10.64;79.94
39773;BME280;25451;51.960;6.250;2022-12-20T08:53:30;101002.59;;;10.61;79.90
39773;BME280;25451;51.960;6.250;2022-12-20T08:56:04;101009.56;;;10.64;79.82
39773;BME280;25451;51.960;6.250;2022-12-20T08:58:29;101009.06;;;10.67;79.88
39773;BME280;25451;51.960;6.250;2022-12-20T09:00:57;101010.75;;;10.68;79.88
39773;BME280;25451;51.960;6.250;2022-12-20T09:03:24;101004.38;;;10.67;79.76
39773;BME280;25451;51.960;6.250;2022-12-20T09:05:51;101009.06;;;10.67;79.78
39773;BME280;25451;51.960;6.250;2022-12-20T09:08:16;101009.91;;;10.67;79.77
39773;BME280;25451;51.960;6.250;2022-12-20T09:10:42;101011.00;;;10.66;79.87
39773;BME280;25451;51.960;6.250;2022-12-20T09:13:08;101010.75;;;10.68;79.80
39773;BME280;25451;51.960;6.250;2022-12-20T09:15:34;101017.72;;;10.70;79.88
39773;BME280;25451;51.960;6.250;2022-12-20T09:18:00;101008.00;;;10.68;79.89
39773;BME280;25451;51.960;6.250;2022-12-20T09:20:27;101015.56;;;10.72;79.88
39773;BME280;25451;51.960;6.250;2022-12-20T09:22:53;101019.97;;;10.73;79.74
39773;BME280;25451;51.960;6.250;2022-12-20T09:25:18;101010.25;;;10.71;79.96
39773;BME280;25451;51.960;6.250;2022-12-20T09:27:43;101014.47;;;10.73;80.02
39773;BME280;25451;51.960;6.250;2022-12-20T09:30:09;101013.13;;;10.76;80.08
39773;BME280;25451;51.960;6.250;2022-12-20T09:32:35;101015.31;;;10.74;80.24
39773;BME280;25451;51.960;6.250;2022-12-20T09:35:02;101025.88;;;10.77;79.96
39773;BME280;25451;51.960;6.250;2022-12-20T09:37:29;101010.25;;;10.71;80.36
39773;BME280;25451;51.960;6.250;2022-12-20T09:39:55;101016.16;;;10.74;80.24
39773;BME280;25451;51.960;6.250;2022-12-20T09:42:26;101012.78;;;10.72;79.99
39773;BME280;25451;51.960;6.250;2022-12-20T09:45:03;101009.53;;;10.75;80.13
39773;BME280;25451;51.960;6.250;2022-12-20T09:47:33;101003.19;;;10.75;80.23
39773;BME280;25451;51.960;6.250;2022-12-20T09:50:01;101002.69;;;10.78;80.15
39773;BME280;25451;51.960;6.250;2022-12-20T09:52:50;100994.28;;;10.73;80.29
39773;BME280;25451;51.960;6.250;2022-12-20T09:55:34;100995.50;;;10.77;80.21
39773;BME280;25451;51.960;6.250;2022-12-20T09:58:27;100990.47;;;10.74;80.47
39773;BME280;25451;51.960;6.250;2022-12-20T10:00:57;100987.56;;;10.69;80.38
39773;BME280;25451;51.960;6.250;2022-12-20T10:03:31;100977.13;;;10.71;80.38
39773;BME280;25451;51.960;6.250;2022-12-20T10:06:12;100982.44;;;10.72;80.42
39773;BME280;25451;51.960;6.250;2022-12-20T10:09:04;100980.72;;;10.71;80.00
39773;BME280;25451;51.960;6.250;2022-12-20T10:14:28;100995.59;;;10.82;80.68
39773;BME280;25451;51.960;6.250;2022-12-20T10:17:24;100915.72;;;10.41;80.64
39773;BME280;25451;51.960;6.250;2022-12-20T10:23:13;100990.94;;;10.82;80.60
39773;BME280;25451;51.960;6.250;2022-12-20T10:25:42;100988.78;;;10.84;80.56
39773;BME280;25451;51.960;6.250;2022-12-20T10:28:14;100963.78;;;10.79;80.66
39773;BME280;25451;51.960;6.250;2022-12-20T10:30:40;100979.97;;;10.88;80.50
39773;BME280;25451;51.960;6.250;2022-12-20T10:33:19;100963.78;;;10.79;80.71
39773;BME280;25451;51.960;6.250;2022-12-20T10:35:54;100978.91;;;10.89;80.70
39773;BME280;25451;51.960;6.250;2022-12-20T10:41:49;100852.91;;;10.20;80.81
39773;BME280;25451;51.960;6.250;2022-12-20T10:44:32;100910.66;;;10.61;80.59
39773;BME280;25451;51.960;6.250;2022-12-20T10:47:28;100896.41;;;10.52;80.60
39773;BME280;25451;51.960;6.250;2022-12-20T10:50:17;100906.31;;;10.65;80.53
39773;BME280;25451;51.960;6.250;2022-12-20T10:53:18;100900.81;;;10.65;80.66
39773;BME280;25451;51.960;6.250;2022-12-20T10:56:12;100852.88;;;10.31;80.84
39773;BME280;25451;51.960;6.250;2022-12-20T11:01:51;100839.44;;;10.35;80.73
39773;BME280;25451;51.960;6.250;2022-12-20T11:04:40;100948.50;;;11.00;80.78
39773;BME280;25451;51.960;6.250;2022-12-20T11:07:30;100911.59;;;10.78;80.76
39773;BME280;25451;51.960;6.250;2022-12-20T11:10:17;100947.19;;;11.03;80.98
39773;BME280;25451;51.960;6.250;2022-12-20T11:16:07;100841.81;;;10.43;80.88
39773;BME280;25451;51.960;6.250;2022-12-20T11:37:21;100923.72;;;11.17;80.91
39773;BME280;25451;51.960;6.250;2022-12-20T11:40:28;100930.16;;;11.22;80.85
39773;BME280;25451;51.960;6.250;2022-12-20T11:46:39;100881.53;;;10.93;80.91
39773;BME280;25451;51.960;6.250;2022-12-20T11:55:08;100924.16;;;11.25;81.07
39773;BME280;25451;51.960;6.250;2022-12-20T12:01:18;100785.44;;;10.50;81.22
39773;BME280;25451;51.960;6.250;2022-12-20T12:07:01;100908.19;;;11.27;81.43
39773;BME280;25451;51.960;6.250;2022-12-20T12:15:56;100808.84;;;10.76;81.05
39773;BME280;25451;51.960;6.250;2022-12-20T12:18:29;100786.66;;;10.71;81.39
39773;BME280;25451;51.960;6.250;2022-12-20T12:21:20;100883.91;;;11.29;81.28
39773;BME280;25451;51.960;6.250;2022-12-20T12:24:24;100838.13;;;11.05;81.39
39773;BME280;25451;51.960;6.250;2022-12-20T12:27:30;100882.31;;;11.33;81.24
39773;BME280;25451;51.960;6.250;2022-12-20T12:30:17;100890.94;;;11.37;81.48
39773;BME280;25451;51.960;6.250;2022-12-20T12:50:52;100855.81;;;11.21;81.74
39773;BME280;25451;51.960;6.250;2022-12-20T12:57:25;100880.31;;;11.45;81.78
39773;BME280;25451;51.960;6.250;2022-12-20T12:59:56;100876.47;;;11.46;81.87
39773;BME280;25451;51.960;6.250;2022-12-20T13:02:25;100765.00;;;10.79;81.51
39773;BME280;25451;51.960;6.250;2022-12-20T13:05:31;100891.72;;;11.49;81.49
39773;BME280;25451;51.960;6.250;2022-12-20T13:07:57;100815.28;;;11.10;81.76
39773;BME280;25451;51.960;6.250;2022-12-20T13:12:57;100881.00;;;11.52;81.97
39773;BME280;25451;51.960;6.250;2022-12-20T13:17:50;100878.81;;;11.54;81.77
39773;BME280;25451;51.960;6.250;2022-12-20T13:20:22;100864.91;;;11.49;81.98
39773;BME280;25451;51.960;6.250;2022-12-20T13:26:40;100878.31;;;11.57;82.16
39773;BME280;25451;51.960;6.250;2022-12-20T13:33:40;100867.75;;;11.54;82.00
39773;BME280;25451;51.960;6.250;2022-12-20T13:38:51;100881.94;;;11.58;82.10
39773;BME280;25451;51.960;6.250;2022-12-20T13:41:26;100874.47;;;11.58;82.29
39773;BME280;25451;51.960;6.250;2022-12-20T13:43:57;100880.00;;;11.58;81.97
39773;BME280;25451;51.960;6.250;2022-12-20T13:46:30;100874.22;;;11.60;82.21
39773;BME280;25451;51.960;6.250;2022-12-20T13:49:01;100874.22;;;11.60;82.10
39773;BME280;25451;51.960;6.250;2022-12-20T13:51:28;100866.41;;;11.57;81.97
39773;BME280;25451;51.960;6.250;2022-12-20T13:54:01;100872.31;;;11.60;82.29
39773;BME280;25451;51.960;6.250;2022-12-20T13:59:05;100870.34;;;11.61;82.20
39773;BME280;25451;51.960;6.250;2022-12-20T14:01:32;100881.41;;;11.61;82.48
39773;BME280;25451;51.960;6.250;2022-12-20T14:04:03;100881.41;;;11.61;82.26
39773;BME280;25451;51.960;6.250;2022-12-20T14:06:31;100863.91;;;11.55;82.57
39773;BME280;25451;51.960;6.250;2022-12-20T14:08:56;100867.84;;;11.59;82.55
39773;BME280;25451;51.960;6.250;2022-12-20T14:11:24;100882.25;;;11.61;82.28
39773;BME280;25451;51.960;6.250;2022-12-20T14:16:19;100884.44;;;11.59;82.63
39773;BME280;25451;51.960;6.250;2022-12-20T14:19:05;100883.59;;;11.59;82.32
39773;BME280;25451;51.960;6.250;2022-12-20T14:21:34;100880.59;;;11.60;82.67
39773;BME280;25451;51.960;6.250;2022-12-20T14:24:01;100869.69;;;11.54;82.67
39773;BME280;25451;51.960;6.250;2022-12-20T14:26:29;100880.34;;;11.62;82.34
39773;BME280;25451;51.960;6.250;2022-12-20T14:28:58;100887.53;;;11.63;82.44
39773;BME280;25451;51.960;6.250;2022-12-20T14:31:32;100877.31;;;11.63;82.77
39773;BME280;25451;51.960;6.250;2022-12-20T14:36:45;100865.69;;;11.61;82.36
39773;BME280;25451;51.960;6.250;2022-12-20T14:39:32;100873.50;;;11.64;82.58
39773;BME280;25451;51.960;6.250;2022-12-20T14:44:36;100869.03;;;11.63;82.46
39773;BME280;25451;51.960;6.250;2022-12-20T14:47:14;100870.13;;;11.62;82.60
39773;BME280;25451;51.960;6.250;2022-12-20T14:49:47;100855.38;;;11.57;82.41
39773;BME280;25451;51.960;6.250;2022-12-20T14:52:16;100861.59;;;11.64;82.48
39773;BME280;25451;51.960;6.250;2022-12-20T15:00:14;100865.41;;;11.63;82.76
39773;BME280;25451;51.960;6.250;2022-12-20T15:08:17;100882.25;;;11.61;82.82
39773;BME280;25451;51.960;6.250;2022-12-20T15:13:39;100852.28;;;11.53;82.45
39773;BME280;25451;51.960;6.250;2022-12-20T15:16:19;100832.81;;;11.48;82.53
39773;BME280;25451;51.960;6.250;2022-12-20T15:18:46;100859.56;;;11.59;82.75